sensor_id;sensor_type;location;lat;lon;timestamp;temperature;humidity
16829;DHT22;8531;48.078;11.968;2023-07-13T00:02:15;19.10;99.90
16829;DHT22;8531;48.078;11.968;2023-07-13T00:04:41;19.20;99.90
16829;DHT22;8531;48.078;11.968;2023-07-13T00:07:07;19.20;99.90
16829;DHT22;8531;48.078;11.968;2023-07-13T00:09:33;19.30;99.90
16829;DHT22;8531;48.078;11.968;2023-07-13T00:11:59;19.30;99.90
16829;DHT22;8531;48.078;11.968;2023-07-13T00:14:26;19.30;99.90
16829;DHT22;8531;48.078;11.968;2023-07-13T00:16:52;19.20;99.90
16829;DHT22;8531;48.078;11.968;2023-07-13T00:19:18;19.20;99.90
16829;DHT22;8531;48.078;11.968;2023-07-13T00:21:44;19.10;99.90
16829;DHT22;8531;48.078;11.968;2023-07-13T00:24:13;19.20;99.90
16829;DHT22;8531;48.078;11.968;2023-07-13T00:26:41;19.20;99.90
16829;DHT22;8531;48.078;11.968;2023-07-13T00:29:10;19.20;99.90
16829;DHT22;8531;48.078;11.968;2023-07-13T00:31:36;19.10;99.90
16829;DHT22;8531;48.078;11.968;2023-07-13T00:34:02;19.20;99.90
16829;DHT22;8531;48.078;11.968;2023-07-13T00:36:30;19.30;99.90
16829;DHT22;8531;48.078;11.968;2023-07-13T00:38:56;19.30;99.90
16829;DHT22;8531;48.078;11.968;2023-07-13T00:41:22;19.20;99.90
16829;DHT22;8531;48.078;11.968;2023-07-13T00:43:48;19.20;99.90
16829;DHT22;8531;48.078;11.968;2023-07-13T00:46:21;19.20;99.90
16829;DHT22;8531;48.078;11.968;2023-07-13T00:48:49;19.20;99.90
16829;DHT22;8531;48.078;11.968;2023-07-13T00:51:19;19.30;99.90
16829;DHT22;8531;48.078;11.968;2023-07-13T00:53:46;19.40;99.90
16829;DHT22;8531;48.078;11.968;2023-07-13T00:56:12;19.40;99.90
16829;DHT22;8531;48.078;11.968;2023-07-13T00:58:38;19.30;99.90
16829;DHT22;8531;48.078;11.968;2023-07-13T01:01:04;19.20;99.90
16829;DHT22;8531;48.078;11.968;2023-07-13T01:03:30;19.10;99.90
16829;DHT22;8531;48.078;11.968;2023-07-13T01:05:56;19.20;99.90
16829;DHT22;8531;48.078;11.968;2023-07-13T01:08:22;19.30;99.90
16829;DHT22;8531;48.078;11.968;2023-07-13T01:10:52;19.30;99.90
16829;DHT22;8531;48.078;11.968;2023-07-13T01:13:18;19.40;99.90
16829;DHT22;8531;48.078;11.968;2023-07-13T01:15:46;19.40;99.90
16829;DHT22;8531;48.078;11.968;2023-07-13T01:18:15;19.40;99.90
16829;DHT22;8531;48.078;11.968;2023-07-13T01:20:57;19.40;99.90
16829;DHT22;8531;48.078;11.968;2023-07-13T01:23:24;19.40;99.90
16829;DHT22;8531;48.078;11.968;2023-07-13T01:25:50;19.40;99.90
16829;DHT22;8531;48.078;11.968;2023-07-13T01:28:16;19.40;99.90
16829;DHT22;8531;48.078;11.968;2023-07-13T01:30:43;19.40;99.90
16829;DHT22;8531;48.078;11.968;2023-07-13T01:33:14;19.40;99.90
16829;DHT22;8531;48.078;11.968;2023-07-13T01:35:42;19.30;99.90
16829;DHT22;8531;48.078;11.968;2023-07-13T01:38:09;19.20;99.90
16829;DHT22;8531;48.078;11.968;2023-07-13T01:40:36;19.20;99.90
16829;DHT22;8531;48.078;11.968;2023-07-13T01:43:02;19.20;99.90
16829;DHT22;8531;48.078;11.968;2023-07-13T01:45:28;19.30;99.90
16829;DHT22;8531;48.078;11.968;2023-07-13T01:47:54;19.20;99.90
16829;DHT22;8531;48.078;11.968;2023-07-13T01:50:19;19.20;99.90
16829;DHT22;8531;48.078;11.968;2023-07-13T01:52:45;19.20;99.90
16829;DHT22;8531;48.078;11.968;2023-07-13T01:55:11;19.10;99.90
16829;DHT22;8531;48.078;11.968;2023-07-13T01:57:37;19.20;99.90
16829;DHT22;8531;48.078;11.968;2023-07-13T02:00:04;19.20;99.90
16829;DHT22;8531;48.078;11.968;2023-07-13T02:02:30;19.30;99.90
16829;DHT22;8531;48.078;11.968;2023-07-13T02:04:56;19.30;99.90
16829;DHT22;8531;48.078;11.968;2023-07-13T02:07:22;19.30;99.90
16829;DHT22;8531;48.078;11.968;2023-07-13T02:09:47;19.30;99.90
16829;DHT22;8531;48.078;11.968;2023-07-13T02:12:13;19.20;99.90
16829;DHT22;8531;48.078;11.968;2023-07-13T02:14:39;19.20;99.90
16829;DHT22;8531;48.078;11.968;2023-07-13T02:17:05;19.30;99.90
16829;DHT22;8531;48.078;11.968;2023-07-13T02:19:31;19.20;99.90
16829;DHT22;8531;48.078;11.968;2023-07-13T02:21:56;19.20;99.90
16829;DHT22;8531;48.078;11.968;2023-07-13T02:24:22;19.20;99.90
16829;DHT22;8531;48.078;11.968;2023-07-13T02:26:48;19.20;99.90
16829;DHT22;8531;48.078;11.968;2023-07-13T02:29:13;19.20;99.90
16829;DHT22;8531;48.078;11.968;2023-07-13T02:31:39;19.20;99.90
16829;DHT22;8531;48.078;11.968;2023-07-13T02:34:05;19.20;99.90
16829;DHT22;8531;48.078;11.968;2023-07-13T02:36:31;19.20;99.90
16829;DHT22;8531;48.078;11.968;2023-07-13T02:39:00;19.20;99.90
16829;DHT22;8531;48.078;11.968;2023-07-13T02:41:26;19.20;99.90
16829;DHT22;8531;48.078;11.968;2023-07-13T02:43:52;19.20;99.90
16829;DHT22;8531;48.078;11.968;2023-07-13T02:46:18;19.20;99.90
16829;DHT22;8531;48.078;11.968;2023-07-13T02:48:45;19.20;99.90
16829;DHT22;8531;48.078;11.968;2023-07-13T02:51:11;19.20;99.90
16829;DHT22;8531;48.078;11.968;2023-07-13T02:53:37;19.20;99.90
16829;DHT22;8531;48.078;11.968;2023-07-13T02:56:04;19.10;99.90
16829;DHT22;8531;48.078;11.968;2023-07-13T02:58:30;19.10;99.90
16829;DHT22;8531;48.078;11.968;2023-07-13T03:00:56;19.20;99.90
16829;DHT22;8531;48.078;11.968;2023-07-13T03:03:23;19.20;99.90
16829;DHT22;8531;48.078;11.968;2023-07-13T03:05:58;19.20;99.90
16829;DHT22;8531;48.078;11.968;2023-07-13T03:08:25;19.20;99.90
16829;DHT22;8531;48.078;11.968;2023-07-13T03:11:09;19.20;99.90
16829;DHT22;8531;48.078;11.968;2023-07-13T03:13:37;19.10;99.90
16829;DHT22;8531;48.078;11.968;2023-07-13T03:16:03;19.10;99.90
16829;DHT22;8531;48.078;11.968;2023-07-13T03:18:29;19.10;99.90
16829;DHT22;8531;48.078;11.968;2023-07-13T03:20:56;19.10;99.90
16829;DHT22;8531;48.078;11.968;2023-07-13T03:23:22;19.00;99.90
16829;DHT22;8531;48.078;11.968;2023-07-13T03:25:48;19.00;99.90
16829;DHT22;8531;48.078;11.968;2023-07-13T03:28:15;19.00;99.90
16829;DHT22;8531;48.078;11.968;2023-07-13T03:30:41;19.00;99.90
16829;DHT22;8531;48.078;11.968;2023-07-13T03:33:07;18.90;99.90
16829;DHT22;8531;48.078;11.968;2023-07-13T03:35:34;18.90;99.90
16829;DHT22;8531;48.078;11.968;2023-07-13T03:38:00;18.90;99.90
16829;DHT22;8531;48.078;11.968;2023-07-13T03:40:27;18.80;99.90
16829;DHT22;8531;48.078;11.968;2023-07-13T03:42:53;18.90;99.90
16829;DHT22;8531;48.078;11.968;2023-07-13T03:45:19;18.80;99.90
16829;DHT22;8531;48.078;11.968;2023-07-13T03:47:45;18.80;99.90
16829;DHT22;8531;48.078;11.968;2023-07-13T03:50:11;18.80;99.90
16829;DHT22;8531;48.078;11.968;2023-07-13T03:52:37;18.70;99.90
16829;DHT22;8531;48.078;11.968;2023-07-13T03:55:03;18.70;99.90
16829;DHT22;8531;48.078;11.968;2023-07-13T03:57:28;18.60;99.90
16829;DHT22;8531;48.078;11.968;2023-07-13T03:59:54;18.50;99.90
16829;DHT22;8531;48.078;11.968;2023-07-13T04:02:20;18.50;99.90
16829;DHT22;8531;48.078;11.968;2023-07-13T04:04:46;18.50;99.90
16829;DHT22;8531;48.078;11.968;2023-07-13T04:07:12;18.60;99.90
16829;DHT22;8531;48.078;11.968;2023-07-13T04:09:38;18.60;99.90
16829;DHT22;8531;48.078;11.968;2023-07-13T04:12:04;18.60;99.90
16829;DHT22;8531;48.078;11.968;2023-07-13T04:14:30;18.60;99.90
16829;DHT22;8531;48.078;11.968;2023-07-13T04:16:55;18.60;99.90
16829;DHT22;8531;48.078;11.968;2023-07-13T04:19:21;18.60;99.90
16829;DHT22;8531;48.078;11.968;2023-07-13T04:21:47;18.50;99.90
16829;DHT22;8531;48.078;11.968;2023-07-13T04:24:13;18.50;99.90
16829;DHT22;8531;48.078;11.968;2023-07-13T04:26:38;18.50;99.90
16829;DHT22;8531;48.078;11.968;2023-07-13T04:29:06;18.40;99.90
16829;DHT22;8531;48.078;11.968;2023-07-13T04:31:32;18.30;99.90
16829;DHT22;8531;48.078;11.968;2023-07-13T04:33:58;18.30;99.90
16829;DHT22;8531;48.078;11.968;2023-07-13T04:36:25;18.30;99.90
16829;DHT22;8531;48.078;11.968;2023-07-13T04:38:53;18.30;99.90
16829;DHT22;8531;48.078;11.968;2023-07-13T04:41:20;18.30;99.90
16829;DHT22;8531;48.078;11.968;2023-07-13T04:43:46;18.30;99.90
16829;DHT22;8531;48.078;11.968;2023-07-13T04:46:14;18.30;99.90
16829;DHT22;8531;48.078;11.968;2023-07-13T04:48:40;18.20;99.90
16829;DHT22;8531;48.078;11.968;2023-07-13T04:51:06;18.20;99.90
16829;DHT22;8531;48.078;11.968;2023-07-13T04:53:32;18.30;99.90
16829;DHT22;8531;48.078;11.968;2023-07-13T04:56:00;18.20;99.90
16829;DHT22;8531;48.078;11.968;2023-07-13T04:58:26;18.20;99.90
16829;DHT22;8531;48.078;11.968;2023-07-13T05:00:52;18.20;99.90
16829;DHT22;8531;48.078;11.968;2023-07-13T05:03:18;18.20;99.90
16829;DHT22;8531;48.078;11.968;2023-07-13T05:05:56;18.20;99.90
16829;DHT22;8531;48.078;11.968;2023-07-13T05:08:22;18.20;99.90
16829;DHT22;8531;48.078;11.968;2023-07-13T05:10:49;18.20;99.90
16829;DHT22;8531;48.078;11.968;2023-07-13T05:13:15;18.20;99.90
16829;DHT22;8531;48.078;11.968;2023-07-13T05:15:41;18.20;99.90
16829;DHT22;8531;48.078;11.968;2023-07-13T05:18:06;18.20;99.90
16829;DHT22;8531;48.078;11.968;2023-07-13T05:20:32;18.30;99.90
16829;DHT22;8531;48.078;11.968;2023-07-13T05:22:58;18.30;99.90
16829;DHT22;8531;48.078;11.968;2023-07-13T05:25:23;18.20;99.90
16829;DHT22;8531;48.078;11.968;2023-07-13T05:27:49;18.20;99.90
16829;DHT22;8531;48.078;11.968;2023-07-13T05:30:15;18.20;99.90
16829;DHT22;8531;48.078;11.968;2023-07-13T05:32:41;18.20;99.90
16829;DHT22;8531;48.078;11.968;2023-07-13T05:35:07;18.10;99.90
16829;DHT22;8531;48.078;11.968;2023-07-13T05:37:32;18.20;99.90
16829;DHT22;8531;48.078;11.968;2023-07-13T05:39:58;18.20;99.90
16829;DHT22;8531;48.078;11.968;2023-07-13T05:42:24;18.20;99.90
16829;DHT22;8531;48.078;11.968;2023-07-13T05:44:50;18.20;99.90
16829;DHT22;8531;48.078;11.968;2023-07-13T05:47:15;18.20;99.90
16829;DHT22;8531;48.078;11.968;2023-07-13T05:49:41;18.20;99.90
16829;DHT22;8531;48.078;11.968;2023-07-13T05:52:07;18.20;99.90
16829;DHT22;8531;48.078;11.968;2023-07-13T05:54:33;18.20;99.90
16829;DHT22;8531;48.078;11.968;2023-07-13T05:56:58;18.20;99.90
16829;DHT22;8531;48.078;11.968;2023-07-13T05:59:24;18.30;99.90
16829;DHT22;8531;48.078;11.968;2023-07-13T06:01:50;18.20;99.90
16829;DHT22;8531;48.078;11.968;2023-07-13T06:04:18;18.30;99.90
16829;DHT22;8531;48.078;11.968;2023-07-13T06:06:44;18.30;99.90
16829;DHT22;8531;48.078;11.968;2023-07-13T06:09:09;18.30;99.90
16829;DHT22;8531;48.078;11.968;2023-07-13T06:11:35;18.30;99.90
16829;DHT22;8531;48.078;11.968;2023-07-13T06:14:01;18.40;99.90
16829;DHT22;8531;48.078;11.968;2023-07-13T06:16:26;18.30;99.90
16829;DHT22;8531;48.078;11.968;2023-07-13T06:18:52;18.30;99.90
16829;DHT22;8531;48.078;11.968;2023-07-13T06:21:19;18.40;99.90
16829;DHT22;8531;48.078;11.968;2023-07-13T06:23:46;18.50;99.90
16829;DHT22;8531;48.078;11.968;2023-07-13T06:26:16;18.40;99.90
16829;DHT22;8531;48.078;11.968;2023-07-13T06:28:42;18.40;99.90
16829;DHT22;8531;48.078;11.968;2023-07-13T06:31:09;18.40;99.90
16829;DHT22;8531;48.078;11.968;2023-07-13T06:33:35;18.50;99.90
16829;DHT22;8531;48.078;11.968;2023-07-13T06:36:02;18.60;99.90
16829;DHT22;8531;48.078;11.968;2023-07-13T06:38:28;18.60;99.90
16829;DHT22;8531;48.078;11.968;2023-07-13T06:40:54;18.70;99.90
16829;DHT22;8531;48.078;11.968;2023-07-13T06:43:19;18.70;99.90
16829;DHT22;8531;48.078;11.968;2023-07-13T06:45:46;18.80;99.90
16829;DHT22;8531;48.078;11.968;2023-07-13T06:48:18;18.80;99.90
16829;DHT22;8531;48.078;11.968;2023-07-13T06:50:45;18.90;99.90
16829;DHT22;8531;48.078;11.968;2023-07-13T06:53:11;19.00;99.90
16829;DHT22;8531;48.078;11.968;2023-07-13T06:55:38;19.00;99.90
16829;DHT22;8531;48.078;11.968;2023-07-13T06:58:04;19.10;99.90
16829;DHT22;8531;48.078;11.968;2023-07-13T07:00:30;19.10;99.90
16829;DHT22;8531;48.078;11.968;2023-07-13T07:02:55;19.00;99.90
16829;DHT22;8531;48.078;11.968;2023-07-13T07:05:21;19.00;99.90
16829;DHT22;8531;48.078;11.968;2023-07-13T07:07:50;19.00;99.90
16829;DHT22;8531;48.078;11.968;2023-07-13T07:10:17;19.10;99.90
16829;DHT22;8531;48.078;11.968;2023-07-13T07:12:43;19.10;99.90
16829;DHT22;8531;48.078;11.968;2023-07-13T07:15:09;19.10;99.90
16829;DHT22;8531;48.078;11.968;2023-07-13T07:17:35;19.10;99.90
16829;DHT22;8531;48.078;11.968;2023-07-13T07:20:01;19.20;99.90
16829;DHT22;8531;48.078;11.968;2023-07-13T07:22:27;19.20;99.90
16829;DHT22;8531;48.078;11.968;2023-07-13T07:24:53;19.30;99.90
16829;DHT22;8531;48.078;11.968;2023-07-13T07:27:19;19.30;99.90
16829;DHT22;8531;48.078;11.968;2023-07-13T07:29:45;19.40;99.90
16829;DHT22;8531;48.078;11.968;2023-07-13T07:32:11;19.40;99.90
16829;DHT22;8531;48.078;11.968;2023-07-13T07:34:37;19.30;99.90
16829;DHT22;8531;48.078;11.968;2023-07-13T07:37:03;19.30;99.90
16829;DHT22;8531;48.078;11.968;2023-07-13T07:39:29;19.30;99.90
16829;DHT22;8531;48.078;11.968;2023-07-13T07:41:55;19.30;99.90
16829;DHT22;8531;48.078;11.968;2023-07-13T07:44:21;19.30;99.90
16829;DHT22;8531;48.078;11.968;2023-07-13T07:46:47;19.30;99.90
16829;DHT22;8531;48.078;11.968;2023-07-13T07:49:13;19.30;99.90
16829;DHT22;8531;48.078;11.968;2023-07-13T07:51:38;19.40;99.90
16829;DHT22;8531;48.078;11.968;2023-07-13T07:54:04;19.40;99.90
16829;DHT22;8531;48.078;11.968;2023-07-13T07:56:30;19.50;99.90
16829;DHT22;8531;48.078;11.968;2023-07-13T07:58:56;19.50;99.90
16829;DHT22;8531;48.078;11.968;2023-07-13T08:01:22;19.50;99.90
16829;DHT22;8531;48.078;11.968;2023-07-13T08:03:48;19.50;99.90
16829;DHT22;8531;48.078;11.968;2023-07-13T08:06:14;19.40;99.90
16829;DHT22;8531;48.078;11.968;2023-07-13T08:08:39;19.40;99.90
16829;DHT22;8531;48.078;11.968;2023-07-13T08:11:06;19.30;99.90
16829;DHT22;8531;48.078;11.968;2023-07-13T08:13:33;19.40;99.90
16829;DHT22;8531;48.078;11.968;2023-07-13T08:15:59;19.30;99.90
16829;DHT22;8531;48.078;11.968;2023-07-13T08:18:25;19.30;99.90
16829;DHT22;8531;48.078;11.968;2023-07-13T08:20:51;19.40;99.90
16829;DHT22;8531;48.078;11.968;2023-07-13T08:23:17;19.40;99.90
16829;DHT22;8531;48.078;11.968;2023-07-13T08:25:45;19.50;99.90
16829;DHT22;8531;48.078;11.968;2023-07-13T08:28:15;19.50;99.90
16829;DHT22;8531;48.078;11.968;2023-07-13T08:30:41;19.50;99.90
16829;DHT22;8531;48.078;11.968;2023-07-13T08:33:06;19.60;99.90
16829;DHT22;8531;48.078;11.968;2023-07-13T08:35:32;19.70;99.90
16829;DHT22;8531;48.078;11.968;2023-07-13T08:37:57;19.70;99.90
16829;DHT22;8531;48.078;11.968;2023-07-13T08:40:25;19.70;99.90
16829;DHT22;8531;48.078;11.968;2023-07-13T08:42:57;19.50;99.90
16829;DHT22;8531;48.078;11.968;2023-07-13T08:45:51;19.50;99.90
16829;DHT22;8531;48.078;11.968;2023-07-13T08:48:27;19.40;99.90
16829;DHT22;8531;48.078;11.968;2023-07-13T08:53:55;19.40;99.90
16829;DHT22;8531;48.078;11.968;2023-07-13T08:56:25;19.40;99.90
16829;DHT22;8531;48.078;11.968;2023-07-13T08:59:01;19.30;99.90
16829;DHT22;8531;48.078;11.968;2023-07-13T09:04:21;19.30;99.90
16829;DHT22;8531;48.078;11.968;2023-07-13T09:15:37;19.40;99.90
16829;DHT22;8531;48.078;11.968;2023-07-13T09:20:48;19.50;99.90
16829;DHT22;8531;48.078;11.968;2023-07-13T09:23:19;19.50;99.90
16829;DHT22;8531;48.078;11.968;2023-07-13T09:25:48;19.50;99.90
16829;DHT22;8531;48.078;11.968;2023-07-13T09:28:24;19.50;99.90
16829;DHT22;8531;48.078;11.968;2023-07-13T09:33:29;19.40;99.90
16829;DHT22;8531;48.078;11.968;2023-07-13T09:35:59;19.50;99.90
16829;DHT22;8531;48.078;11.968;2023-07-13T09:38:28;19.50;99.90
16829;DHT22;8531;48.078;11.968;2023-07-13T09:46:26;19.40;99.90
16829;DHT22;8531;48.078;11.968;2023-07-13T09:48:52;19.40;99.90
16829;DHT22;8531;48.078;11.968;2023-07-13T09:51:18;19.20;99.90
16829;DHT22;8531;48.078;11.968;2023-07-13T09:53:44;19.10;99.90
16829;DHT22;8531;48.078;11.968;2023-07-13T09:56:24;19.00;99.90
16829;DHT22;8531;48.078;11.968;2023-07-13T09:58:52;19.10;99.90
16829;DHT22;8531;48.078;11.968;2023-07-13T10:01:32;19.10;99.90
16829;DHT22;8531;48.078;11.968;2023-07-13T10:03:59;19.10;99.90
16829;DHT22;8531;48.078;11.968;2023-07-13T10:06:24;19.20;99.90
16829;DHT22;8531;48.078;11.968;2023-07-13T10:08:52;19.20;99.90
16829;DHT22;8531;48.078;11.968;2023-07-13T10:11:21;19.10;99.90
16829;DHT22;8531;48.078;11.968;2023-07-13T10:16:15;19.20;99.90
16829;DHT22;8531;48.078;11.968;2023-07-13T10:21:52;19.30;99.90
16829;DHT22;8531;48.078;11.968;2023-07-13T10:24:23;19.30;99.90
16829;DHT22;8531;48.078;11.968;2023-07-13T10:27:29;19.20;99.90
16829;DHT22;8531;48.078;11.968;2023-07-13T10:30:32;19.20;99.90
16829;DHT22;8531;48.078;11.968;2023-07-13T10:33:00;19.20;99.90
16829;DHT22;8531;48.078;11.968;2023-07-13T10:35:29;19.20;99.90
16829;DHT22;8531;48.078;11.968;2023-07-13T10:38:05;19.20;99.90
16829;DHT22;8531;48.078;11.968;2023-07-13T10:40:45;19.30;99.90
16829;DHT22;8531;48.078;11.968;2023-07-13T10:43:19;19.40;99.90
16829;DHT22;8531;48.078;11.968;2023-07-13T10:45:47;19.50;99.90
16829;DHT22;8531;48.078;11.968;2023-07-13T10:48:16;19.50;99.90
16829;DHT22;8531;48.078;11.968;2023-07-13T10:50:45;19.70;99.90
16829;DHT22;8531;48.078;11.968;2023-07-13T10:53:32;19.80;99.90
16829;DHT22;8531;48.078;11.968;2023-07-13T10:58:36;20.10;99.90
16829;DHT22;8531;48.078;11.968;2023-07-13T11:03:55;20.40;99.90
16829;DHT22;8531;48.078;11.968;2023-07-13T11:12:26;21.30;99.90
16829;DHT22;8531;48.078;11.968;2023-07-13T11:22:51;21.60;99.90
16829;DHT22;8531;48.078;11.968;2023-07-13T11:27:51;21.70;99.90
16829;DHT22;8531;48.078;11.968;2023-07-13T11:33:17;22.30;99.90
16829;DHT22;8531;48.078;11.968;2023-07-13T11:38:37;22.50;99.90
16829;DHT22;8531;48.078;11.968;2023-07-13T11:41:27;23.00;99.90
16829;DHT22;8531;48.078;11.968;2023-07-13T11:44:01;23.40;99.90
16829;DHT22;8531;48.078;11.968;2023-07-13T11:46:28;23.70;99.90
16829;DHT22;8531;48.078;11.968;2023-07-13T11:48:54;24.10;99.90
16829;DHT22;8531;48.078;11.968;2023-07-13T11:51:29;24.40;99.90
16829;DHT22;8531;48.078;11.968;2023-07-13T11:54:12;24.30;99.90
16829;DHT22;8531;48.078;11.968;2023-07-13T11:56:41;24.50;99.90
16829;DHT22;8531;48.078;11.968;2023-07-13T11:59:10;24.20;99.90
16829;DHT22;8531;48.078;11.968;2023-07-13T12:01:43;24.20;99.90
16829;DHT22;8531;48.078;11.968;2023-07-13T12:04:23;24.70;99.90
16829;DHT22;8531;48.078;11.968;2023-07-13T12:07:03;24.90;99.90
16829;DHT22;8531;48.078;11.968;2023-07-13T12:09:29;25.20;99.90
16829;DHT22;8531;48.078;11.968;2023-07-13T12:11:57;25.00;99.90
16829;DHT22;8531;48.078;11.968;2023-07-13T12:14:25;25.20;99.90
16829;DHT22;8531;48.078;11.968;2023-07-13T12:16:53;25.40;99.90
16829;DHT22;8531;48.078;11.968;2023-07-13T12:19:21;25.30;99.90
16829;DHT22;8531;48.078;11.968;2023-07-13T12:21:48;25.30;99.90
16829;DHT22;8531;48.078;11.968;2023-07-13T12:24:19;24.90;99.90
16829;DHT22;8531;48.078;11.968;2023-07-13T12:27:01;24.90;99.90
16829;DHT22;8531;48.078;11.968;2023-07-13T12:29:27;24.10;99.90
16829;DHT22;8531;48.078;11.968;2023-07-13T12:31:54;23.60;99.90
16829;DHT22;8531;48.078;11.968;2023-07-13T12:34:24;24.10;99.90
16829;DHT22;8531;48.078;11.968;2023-07-13T12:37:00;24.40;99.90
16829;DHT22;8531;48.078;11.968;2023-07-13T12:39:37;24.90;99.90
16829;DHT22;8531;48.078;11.968;2023-07-13T12:42:26;25.20;99.90
16829;DHT22;8531;48.078;11.968;2023-07-13T12:45:01;25.70;99.90
16829;DHT22;8531;48.078;11.968;2023-07-13T12:47:28;26.30;99.90
16829;DHT22;8531;48.078;11.968;2023-07-13T12:49:57;26.50;99.90
16829;DHT22;8531;48.078;11.968;2023-07-13T12:52:29;26.30;99.90
16829;DHT22;8531;48.078;11.968;2023-07-13T12:55:03;26.60;99.90
16829;DHT22;8531;48.078;11.968;2023-07-13T12:57:29;26.80;99.90
16829;DHT22;8531;48.078;11.968;2023-07-13T12:59:55;26.60;99.90
16829;DHT22;8531;48.078;11.968;2023-07-13T13:02:33;26.70;99.90
16829;DHT22;8531;48.078;11.968;2023-07-13T13:05:00;26.60;99.90
16829;DHT22;8531;48.078;11.968;2023-07-13T13:07:26;26.40;99.90
16829;DHT22;8531;48.078;11.968;2023-07-13T13:09:52;26.10;99.90
16829;DHT22;8531;48.078;11.968;2023-07-13T13:12:22;25.50;99.90
16829;DHT22;8531;48.078;11.968;2023-07-13T13:14:49;25.30;99.90
16829;DHT22;8531;48.078;11.968;2023-07-13T13:17:29;25.30;99.90
16829;DHT22;8531;48.078;11.968;2023-07-13T13:19:56;25.20;99.90
16829;DHT22;8531;48.078;11.968;2023-07-13T13:22:22;25.10;99.90
16829;DHT22;8531;48.078;11.968;2023-07-13T13:24:49;25.00;99.90
16829;DHT22;8531;48.078;11.968;2023-07-13T13:27:20;24.90;99.90
16829;DHT22;8531;48.078;11.968;2023-07-13T13:29:49;25.10;99.90
16829;DHT22;8531;48.078;11.968;2023-07-13T13:32:17;25.00;99.90
16829;DHT22;8531;48.078;11.968;2023-07-13T13:34:43;24.90;99.90
16829;DHT22;8531;48.078;11.968;2023-07-13T13:37:19;25.00;99.90
16829;DHT22;8531;48.078;11.968;2023-07-13T13:39:46;24.80;99.90
16829;DHT22;8531;48.078;11.968;2023-07-13T13:42:12;25.20;99.90
16829;DHT22;8531;48.078;11.968;2023-07-13T13:44:39;25.20;99.90
16829;DHT22;8531;48.078;11.968;2023-07-13T13:47:33;25.00;99.90
16829;DHT22;8531;48.078;11.968;2023-07-13T13:50:00;24.90;99.90
16829;DHT22;8531;48.078;11.968;2023-07-13T13:52:26;25.00;99.90
16829;DHT22;8531;48.078;11.968;2023-07-13T13:54:52;25.40;99.90
16829;DHT22;8531;48.078;11.968;2023-07-13T13:57:24;24.70;99.90
16829;DHT22;8531;48.078;11.968;2023-07-13T13:59:53;25.10;99.90
16829;DHT22;8531;48.078;11.968;2023-07-13T14:02:27;25.30;99.90
16829;DHT22;8531;48.078;11.968;2023-07-13T14:04:59;25.40;99.90
16829;DHT22;8531;48.078;11.968;2023-07-13T14:07:26;25.20;99.90
16829;DHT22;8531;48.078;11.968;2023-07-13T14:09:57;25.00;99.90
16829;DHT22;8531;48.078;11.968;2023-07-13T14:12:23;24.90;99.90
16829;DHT22;8531;48.078;11.968;2023-07-13T14:14:53;24.90;99.90
16829;DHT22;8531;48.078;11.968;2023-07-13T14:17:21;24.80;99.90
16829;DHT22;8531;48.078;11.968;2023-07-13T14:19:51;24.70;99.90
16829;DHT22;8531;48.078;11.968;2023-07-13T14:22:23;24.60;99.90
16829;DHT22;8531;48.078;11.968;2023-07-13T14:24:51;24.50;99.90
16829;DHT22;8531;48.078;11.968;2023-07-13T14:27:16;24.60;99.90
16829;DHT22;8531;48.078;11.968;2023-07-13T14:29:42;24.60;99.90
16829;DHT22;8531;48.078;11.968;2023-07-13T14:32:11;24.80;99.90
16829;DHT22;8531;48.078;11.968;2023-07-13T14:34:37;24.80;99.90
16829;DHT22;8531;48.078;11.968;2023-07-13T14:37:03;25.00;99.90
16829;DHT22;8531;48.078;11.968;2023-07-13T14:39:30;25.20;99.90
16829;DHT22;8531;48.078;11.968;2023-07-13T14:41:57;25.30;99.90
16829;DHT22;8531;48.078;11.968;2023-07-13T14:44:28;25.50;99.90
16829;DHT22;8531;48.078;11.968;2023-07-13T14:47:02;25.50;99.90
16829;DHT22;8531;48.078;11.968;2023-07-13T14:49:40;25.50;99.90
16829;DHT22;8531;48.078;11.968;2023-07-13T14:52:17;25.40;99.90
16829;DHT22;8531;48.078;11.968;2023-07-13T14:54:43;25.40;99.90
16829;DHT22;8531;48.078;11.968;2023-07-13T14:57:13;25.30;99.90
16829;DHT22;8531;48.078;11.968;2023-07-13T14:59:40;25.20;99.90
16829;DHT22;8531;48.078;11.968;2023-07-13T15:02:31;25.20;99.90
16829;DHT22;8531;48.078;11.968;2023-07-13T15:04:57;25.10;99.90
16829;DHT22;8531;48.078;11.968;2023-07-13T15:07:23;25.10;99.90
16829;DHT22;8531;48.078;11.968;2023-07-13T15:09:50;25.10;99.90
16829;DHT22;8531;48.078;11.968;2023-07-13T15:12:19;25.10;99.90
16829;DHT22;8531;48.078;11.968;2023-07-13T15:14:45;25.10;99.90
16829;DHT22;8531;48.078;11.968;2023-07-13T15:17:38;25.00;99.90
16829;DHT22;8531;48.078;11.968;2023-07-13T15:20:26;25.00;99.90
16829;DHT22;8531;48.078;11.968;2023-07-13T15:22:53;24.90;99.90
16829;DHT22;8531;48.078;11.968;2023-07-13T15:25:22;24.90;99.90
16829;DHT22;8531;48.078;11.968;2023-07-13T15:27:50;25.10;99.90
16829;DHT22;8531;48.078;11.968;2023-07-13T15:30:16;25.20;99.90
16829;DHT22;8531;48.078;11.968;2023-07-13T15:32:44;25.10;99.90
16829;DHT22;8531;48.078;11.968;2023-07-13T15:35:18;25.10;99.90
16829;DHT22;8531;48.078;11.968;2023-07-13T15:37:45;25.00;99.90
16829;DHT22;8531;48.078;11.968;2023-07-13T15:40:12;24.90;99.90
16829;DHT22;8531;48.078;11.968;2023-07-13T15:42:39;25.10;99.90
16829;DHT22;8531;48.078;11.968;2023-07-13T15:45:16;25.30;99.90
16829;DHT22;8531;48.078;11.968;2023-07-13T15:47:43;25.40;99.90
16829;DHT22;8531;48.078;11.968;2023-07-13T15:50:21;25.30;99.90
16829;DHT22;8531;48.078;11.968;2023-07-13T15:52:51;25.60;99.90
16829;DHT22;8531;48.078;11.968;2023-07-13T15:55:17;25.90;99.90
16829;DHT22;8531;48.078;11.968;2023-07-13T15:57:47;26.00;99.90
16829;DHT22;8531;48.078;11.968;2023-07-13T16:00:23;26.20;99.90
16829;DHT22;8531;48.078;11.968;2023-07-13T16:02:49;26.20;99.90
16829;DHT22;8531;48.078;11.968;2023-07-13T16:05:16;26.10;99.90
16829;DHT22;8531;48.078;11.968;2023-07-13T16:07:44;25.90;99.90
16829;DHT22;8531;48.078;11.968;2023-07-13T16:10:18;25.70;99.90
16829;DHT22;8531;48.078;11.968;2023-07-13T16:12:45;25.70;99.90
16829;DHT22;8531;48.078;11.968;2023-07-13T16:15:17;25.60;99.90
16829;DHT22;8531;48.078;11.968;2023-07-13T16:17:45;25.40;99.90
16829;DHT22;8531;48.078;11.968;2023-07-13T16:20:12;25.40;99.90
16829;DHT22;8531;48.078;11.968;2023-07-13T16:22:45;25.30;99.90
16829;DHT22;8531;48.078;11.968;2023-07-13T16:25:22;25.20;99.90
16829;DHT22;8531;48.078;11.968;2023-07-13T16:27:53;25.20;99.90
16829;DHT22;8531;48.078;11.968;2023-07-13T16:30:27;25.30;99.90
16829;DHT22;8531;48.078;11.968;2023-07-13T16:32:56;25.40;99.90
16829;DHT22;8531;48.078;11.968;2023-07-13T16:35:25;25.50;99.90
16829;DHT22;8531;48.078;11.968;2023-07-13T16:37:51;25.60;99.90